WIFK1: Floodway at Arkansas R at Wichita, KS

Data processed at Sat May 25 2019 23:50


All information presented herein is the property of the government of the United States of America and may be revised or deleted at any time without prior notice.
Dissemination of this information without the expressed written consent of the Public Affairs Office, Tulsa District U.S. Army Corps of Engineers is strictly prohibited.
These data are gathered electronically and, as presented, have not undergone any form of quality control. These data are not guaranteed to be valid or correct.
Go to home page.
Go to station list.
Go to home page.

Downstream station:


Previous Day
Next Day
Current Day
    
SHEF ID:       WIFK1     FLOODWAY AT ARKANSAS R AT WICHIT
STATION TYPE:  

               PRECIP     STAGE  STAGE(2)  RIV-FLOW  BAT-LOAD
                   in        ft        ft       cfs      volt
              Ccp-Rev   Ccp-Rev   Ccp-Rev   Ccp-Rev   Ccp-Rev
(US/Central)
05/25 00:00      0.00     13.82      ----     11294     12.33
05/25 01:00      0.00     13.91      ----     11456     12.33
05/25 02:00      0.00     13.85      ----     11348     12.25
05/25 03:00      0.00     13.92      ----     11474     12.25
05/25 04:00      0.00     13.84      ----     11330     12.25
05/25 05:00      0.00     13.73      ----     11131     12.25
05/25 06:00      0.00     13.67      ----     11023     12.25
05/25 07:00      0.00     13.51      ----     10734     12.25
05/25 08:00      0.00     13.46      ----     10644     12.25
05/25 09:00      0.00     13.37      ----     10482     12.41
05/25 10:00      0.00     13.28      ----     10320     12.97
05/25 11:00      0.00     13.18      ----     10139     12.97
05/25 12:00      0.00     13.07      ----      9941     13.05
05/25 13:00      0.00     13.03      ----      9868     13.21
05/25 14:00      0.00     12.97      ----      9760     13.05
05/25 15:00      0.00     12.92      ----      9670     13.29
05/25 16:00      0.00     12.83      ----      9507     12.97
05/25 17:00      0.00     12.73      ----      9327     13.13
05/25 18:00      0.00     12.61      ----      9110     12.97
05/25 19:00      0.00     12.55      ----      9002     12.41
05/25 20:00      0.01     12.46      ----      8839     12.41
05/25 21:00      0.45     12.41      ----      8749     12.41
05/25 22:00      0.29     12.40      ----      8731     12.41
05/25 23:00      ----      ----      ----      ----      ----